sensor_id;sensor_type;location;lat;lon;timestamp;P1;durP1;ratioP1;P2;durP2;ratioP2
16075;SDS011;8142;48.242;11.644;2023-04-23T00:01:34;5.77;;;3.50;;
16075;SDS011;8142;48.242;11.644;2023-04-23T00:04:05;4.10;;;3.23;;
16075;SDS011;8142;48.242;11.644;2023-04-23T00:06:32;4.63;;;3.20;;
16075;SDS011;8142;48.242;11.644;2023-04-23T00:08:59;3.50;;;2.80;;
16075;SDS011;8142;48.242;11.644;2023-04-23T00:11:26;3.33;;;2.87;;
16075;SDS011;8142;48.242;11.644;2023-04-23T00:13:52;3.20;;;2.90;;
16075;SDS011;8142;48.242;11.644;2023-04-23T00:16:19;4.33;;;3.43;;
16075;SDS011;8142;48.242;11.644;2023-04-23T00:18:45;5.47;;;3.47;;
16075;SDS011;8142;48.242;11.644;2023-04-23T00:21:12;4.43;;;3.20;;
16075;SDS011;8142;48.242;11.644;2023-04-23T00:23:38;4.57;;;3.30;;
16075;SDS011;8142;48.242;11.644;2023-04-23T00:26:04;4.00;;;3.37;;
16075;SDS011;8142;48.242;11.644;2023-04-23T00:28:30;3.57;;;3.27;;
16075;SDS011;8142;48.242;11.644;2023-04-23T00:30:56;5.37;;;3.60;;
16075;SDS011;8142;48.242;11.644;2023-04-23T00:33:22;4.97;;;3.33;;
16075;SDS011;8142;48.242;11.644;2023-04-23T00:35:48;5.10;;;3.50;;
16075;SDS011;8142;48.242;11.644;2023-04-23T00:38:14;6.50;;;3.47;;
16075;SDS011;8142;48.242;11.644;2023-04-23T00:40:39;2.80;;;2.40;;
16075;SDS011;8142;48.242;11.644;2023-04-23T00:43:05;2.97;;;2.67;;
16075;SDS011;8142;48.242;11.644;2023-04-23T00:45:32;8.57;;;3.53;;
16075;SDS011;8142;48.242;11.644;2023-04-23T00:47:58;5.33;;;3.03;;
16075;SDS011;8142;48.242;11.644;2023-04-23T00:50:24;4.97;;;3.20;;
16075;SDS011;8142;48.242;11.644;2023-04-23T00:52:50;5.60;;;2.97;;
16075;SDS011;8142;48.242;11.644;2023-04-23T00:55:19;3.90;;;3.20;;
16075;SDS011;8142;48.242;11.644;2023-04-23T00:57:45;4.63;;;3.13;;
16075;SDS011;8142;48.242;11.644;2023-04-23T01:00:12;4.27;;;2.90;;
16075;SDS011;8142;48.242;11.644;2023-04-23T01:02:38;3.87;;;3.20;;
16075;SDS011;8142;48.242;11.644;2023-04-23T01:05:06;4.80;;;2.77;;
16075;SDS011;8142;48.242;11.644;2023-04-23T01:07:35;4.30;;;3.07;;
16075;SDS011;8142;48.242;11.644;2023-04-23T01:10:05;3.20;;;2.60;;
16075;SDS011;8142;48.242;11.644;2023-04-23T01:12:32;2.47;;;2.27;;
16075;SDS011;8142;48.242;11.644;2023-04-23T01:14:58;3.30;;;3.00;;
16075;SDS011;8142;48.242;11.644;2023-04-23T01:17:25;6.80;;;3.03;;
16075;SDS011;8142;48.242;11.644;2023-04-23T01:19:51;4.47;;;2.80;;
16075;SDS011;8142;48.242;11.644;2023-04-23T01:22:17;3.90;;;3.10;;
16075;SDS011;8142;48.242;11.644;2023-04-23T01:24:42;3.70;;;3.00;;
16075;SDS011;8142;48.242;11.644;2023-04-23T01:27:09;3.63;;;2.90;;
16075;SDS011;8142;48.242;11.644;2023-04-23T01:29:35;3.40;;;3.10;;
16075;SDS011;8142;48.242;11.644;2023-04-23T01:32:03;7.37;;;3.67;;
16075;SDS011;8142;48.242;11.644;2023-04-23T01:34:31;4.10;;;3.70;;
16075;SDS011;8142;48.242;11.644;2023-04-23T01:36:57;6.83;;;3.60;;
16075;SDS011;8142;48.242;11.644;2023-04-23T01:39:24;3.90;;;3.10;;
16075;SDS011;8142;48.242;11.644;2023-04-23T01:41:50;3.73;;;2.60;;
16075;SDS011;8142;48.242;11.644;2023-04-23T01:44:17;4.57;;;3.37;;
16075;SDS011;8142;48.242;11.644;2023-04-23T01:46:43;8.00;;;3.70;;
16075;SDS011;8142;48.242;11.644;2023-04-23T01:49:09;4.77;;;3.67;;
16075;SDS011;8142;48.242;11.644;2023-04-23T01:51:36;8.03;;;3.83;;
16075;SDS011;8142;48.242;11.644;2023-04-23T01:54:02;4.17;;;3.60;;
16075;SDS011;8142;48.242;11.644;2023-04-23T01:56:27;5.00;;;3.97;;
16075;SDS011;8142;48.242;11.644;2023-04-23T01:58:55;5.13;;;3.90;;
16075;SDS011;8142;48.242;11.644;2023-04-23T02:01:21;5.63;;;3.57;;
16075;SDS011;8142;48.242;11.644;2023-04-23T02:03:50;5.63;;;4.00;;
16075;SDS011;8142;48.242;11.644;2023-04-23T02:06:16;5.10;;;4.23;;
16075;SDS011;8142;48.242;11.644;2023-04-23T02:08:42;5.47;;;4.00;;
16075;SDS011;8142;48.242;11.644;2023-04-23T02:11:08;4.70;;;2.80;;
16075;SDS011;8142;48.242;11.644;2023-04-23T02:13:34;4.53;;;3.30;;
16075;SDS011;8142;48.242;11.644;2023-04-23T02:15:59;4.17;;;3.60;;
16075;SDS011;8142;48.242;11.644;2023-04-23T02:18:25;5.60;;;4.40;;
16075;SDS011;8142;48.242;11.644;2023-04-23T02:20:52;4.93;;;3.93;;
16075;SDS011;8142;48.242;11.644;2023-04-23T02:23:18;6.47;;;4.13;;
16075;SDS011;8142;48.242;11.644;2023-04-23T02:25:44;5.00;;;4.50;;
16075;SDS011;8142;48.242;11.644;2023-04-23T02:28:10;6.47;;;4.20;;
16075;SDS011;8142;48.242;11.644;2023-04-23T02:30:37;5.27;;;3.97;;
16075;SDS011;8142;48.242;11.644;2023-04-23T02:33:09;6.83;;;4.17;;
16075;SDS011;8142;48.242;11.644;2023-04-23T02:35:35;6.00;;;4.23;;
16075;SDS011;8142;48.242;11.644;2023-04-23T02:38:01;5.37;;;4.20;;
16075;SDS011;8142;48.242;11.644;2023-04-23T02:40:27;4.50;;;3.20;;
16075;SDS011;8142;48.242;11.644;2023-04-23T02:42:53;3.57;;;3.10;;
16075;SDS011;8142;48.242;11.644;2023-04-23T02:45:19;6.77;;;4.33;;
16075;SDS011;8142;48.242;11.644;2023-04-23T02:47:45;5.73;;;4.03;;
16075;SDS011;8142;48.242;11.644;2023-04-23T02:50:10;4.90;;;4.40;;
16075;SDS011;8142;48.242;11.644;2023-04-23T02:52:36;4.73;;;4.20;;
16075;SDS011;8142;48.242;11.644;2023-04-23T02:55:02;8.10;;;4.57;;
16075;SDS011;8142;48.242;11.644;2023-04-23T02:57:28;6.07;;;4.50;;
16075;SDS011;8142;48.242;11.644;2023-04-23T02:59:54;5.83;;;4.57;;
16075;SDS011;8142;48.242;11.644;2023-04-23T03:02:20;6.53;;;4.60;;
16075;SDS011;8142;48.242;11.644;2023-04-23T03:04:46;5.73;;;4.40;;
16075;SDS011;8142;48.242;11.644;2023-04-23T03:07:12;6.27;;;4.90;;
16075;SDS011;8142;48.242;11.644;2023-04-23T03:09:38;4.93;;;4.30;;
16075;SDS011;8142;48.242;11.644;2023-04-23T03:12:04;3.50;;;3.20;;
16075;SDS011;8142;48.242;11.644;2023-04-23T03:14:29;5.13;;;4.37;;
16075;SDS011;8142;48.242;11.644;2023-04-23T03:16:55;7.83;;;4.80;;
16075;SDS011;8142;48.242;11.644;2023-04-23T03:19:21;5.77;;;4.30;;
16075;SDS011;8142;48.242;11.644;2023-04-23T03:21:47;6.93;;;4.47;;
16075;SDS011;8142;48.242;11.644;2023-04-23T03:24:13;5.77;;;4.60;;
16075;SDS011;8142;48.242;11.644;2023-04-23T03:26:40;5.20;;;4.70;;
16075;SDS011;8142;48.242;11.644;2023-04-23T03:29:06;5.67;;;4.70;;
16075;SDS011;8142;48.242;11.644;2023-04-23T03:31:32;5.53;;;4.53;;
16075;SDS011;8142;48.242;11.644;2023-04-23T03:33:58;5.80;;;3.97;;
16075;SDS011;8142;48.242;11.644;2023-04-23T03:36:23;5.83;;;4.50;;
16075;SDS011;8142;48.242;11.644;2023-04-23T03:38:49;6.53;;;4.43;;
16075;SDS011;8142;48.242;11.644;2023-04-23T03:41:15;4.37;;;3.70;;
16075;SDS011;8142;48.242;11.644;2023-04-23T03:43:42;4.60;;;4.00;;
16075;SDS011;8142;48.242;11.644;2023-04-23T03:46:07;5.73;;;4.57;;
16075;SDS011;8142;48.242;11.644;2023-04-23T03:48:33;6.80;;;4.23;;
16075;SDS011;8142;48.242;11.644;2023-04-23T03:50:59;5.53;;;4.60;;
16075;SDS011;8142;48.242;11.644;2023-04-23T03:53:25;5.23;;;4.10;;
16075;SDS011;8142;48.242;11.644;2023-04-23T03:55:51;5.27;;;4.10;;
16075;SDS011;8142;48.242;11.644;2023-04-23T03:58:17;5.67;;;4.10;;
16075;SDS011;8142;48.242;11.644;2023-04-23T04:00:42;5.97;;;4.30;;
16075;SDS011;8142;48.242;11.644;2023-04-23T04:03:09;5.47;;;4.00;;
16075;SDS011;8142;48.242;11.644;2023-04-23T04:05:35;6.40;;;4.03;;
16075;SDS011;8142;48.242;11.644;2023-04-23T04:08:01;6.43;;;3.67;;
16075;SDS011;8142;48.242;11.644;2023-04-23T04:10:28;5.63;;;3.90;;
16075;SDS011;8142;48.242;11.644;2023-04-23T04:12:55;4.70;;;3.90;;
16075;SDS011;8142;48.242;11.644;2023-04-23T04:15:21;5.70;;;4.13;;
16075;SDS011;8142;48.242;11.644;2023-04-23T04:17:47;6.27;;;4.17;;
16075;SDS011;8142;48.242;11.644;2023-04-23T04:20:12;4.40;;;4.00;;
16075;SDS011;8142;48.242;11.644;2023-04-23T04:22:38;5.67;;;4.43;;
16075;SDS011;8142;48.242;11.644;2023-04-23T04:25:04;5.10;;;4.43;;
16075;SDS011;8142;48.242;11.644;2023-04-23T04:27:31;5.47;;;4.50;;
16075;SDS011;8142;48.242;11.644;2023-04-23T04:30:00;7.50;;;4.30;;
16075;SDS011;8142;48.242;11.644;2023-04-23T04:32:26;6.20;;;4.33;;
16075;SDS011;8142;48.242;11.644;2023-04-23T04:34:52;9.07;;;4.73;;
16075;SDS011;8142;48.242;11.644;2023-04-23T04:37:18;5.93;;;4.77;;
16075;SDS011;8142;48.242;11.644;2023-04-23T04:39:45;7.23;;;4.50;;
16075;SDS011;8142;48.242;11.644;2023-04-23T04:42:12;5.43;;;4.50;;
16075;SDS011;8142;48.242;11.644;2023-04-23T04:44:38;7.00;;;5.00;;
16075;SDS011;8142;48.242;11.644;2023-04-23T04:47:04;5.17;;;4.50;;
16075;SDS011;8142;48.242;11.644;2023-04-23T04:49:32;5.17;;;4.53;;
16075;SDS011;8142;48.242;11.644;2023-04-23T04:51:58;5.20;;;4.40;;
16075;SDS011;8142;48.242;11.644;2023-04-23T04:54:24;5.03;;;4.50;;
16075;SDS011;8142;48.242;11.644;2023-04-23T04:56:50;5.17;;;4.60;;
16075;SDS011;8142;48.242;11.644;2023-04-23T04:59:16;5.77;;;4.10;;
16075;SDS011;8142;48.242;11.644;2023-04-23T05:01:42;4.93;;;4.10;;
16075;SDS011;8142;48.242;11.644;2023-04-23T05:04:08;5.03;;;4.20;;
16075;SDS011;8142;48.242;11.644;2023-04-23T05:06:34;5.37;;;4.20;;
16075;SDS011;8142;48.242;11.644;2023-04-23T05:09:00;7.83;;;4.27;;
16075;SDS011;8142;48.242;11.644;2023-04-23T05:11:26;6.13;;;4.53;;
16075;SDS011;8142;48.242;11.644;2023-04-23T05:13:52;6.47;;;4.03;;
16075;SDS011;8142;48.242;11.644;2023-04-23T05:16:18;6.10;;;4.23;;
16075;SDS011;8142;48.242;11.644;2023-04-23T05:18:43;4.60;;;4.10;;
16075;SDS011;8142;48.242;11.644;2023-04-23T05:21:09;6.37;;;4.37;;
16075;SDS011;8142;48.242;11.644;2023-04-23T05:23:36;4.10;;;3.70;;
16075;SDS011;8142;48.242;11.644;2023-04-23T05:26:02;4.47;;;4.00;;
16075;SDS011;8142;48.242;11.644;2023-04-23T05:28:29;7.07;;;4.10;;
16075;SDS011;8142;48.242;11.644;2023-04-23T05:30:55;4.90;;;3.83;;
16075;SDS011;8142;48.242;11.644;2023-04-23T05:33:21;4.60;;;3.77;;
16075;SDS011;8142;48.242;11.644;2023-04-23T05:35:47;5.57;;;3.73;;
16075;SDS011;8142;48.242;11.644;2023-04-23T05:38:13;5.40;;;3.90;;
16075;SDS011;8142;48.242;11.644;2023-04-23T05:40:39;5.83;;;4.00;;
16075;SDS011;8142;48.242;11.644;2023-04-23T05:43:05;5.23;;;4.27;;
16075;SDS011;8142;48.242;11.644;2023-04-23T05:45:30;5.57;;;4.53;;
16075;SDS011;8142;48.242;11.644;2023-04-23T05:47:56;4.43;;;3.97;;
16075;SDS011;8142;48.242;11.644;2023-04-23T05:50:22;5.10;;;4.30;;
16075;SDS011;8142;48.242;11.644;2023-04-23T05:52:48;5.50;;;4.33;;
16075;SDS011;8142;48.242;11.644;2023-04-23T05:55:14;5.10;;;4.37;;
16075;SDS011;8142;48.242;11.644;2023-04-23T05:57:40;5.80;;;4.23;;
16075;SDS011;8142;48.242;11.644;2023-04-23T06:00:06;7.27;;;4.50;;
16075;SDS011;8142;48.242;11.644;2023-04-23T06:02:36;5.80;;;4.53;;
16075;SDS011;8142;48.242;11.644;2023-04-23T06:05:03;5.73;;;4.40;;
16075;SDS011;8142;48.242;11.644;2023-04-23T06:07:30;5.17;;;4.47;;
16075;SDS011;8142;48.242;11.644;2023-04-23T06:09:56;6.00;;;4.90;;
16075;SDS011;8142;48.242;11.644;2023-04-23T06:12:22;5.90;;;4.87;;
16075;SDS011;8142;48.242;11.644;2023-04-23T06:14:48;6.30;;;4.73;;
16075;SDS011;8142;48.242;11.644;2023-04-23T06:17:14;8.60;;;5.00;;
16075;SDS011;8142;48.242;11.644;2023-04-23T06:19:40;5.60;;;4.57;;
16075;SDS011;8142;48.242;11.644;2023-04-23T06:22:06;8.03;;;5.00;;
16075;SDS011;8142;48.242;11.644;2023-04-23T06:24:32;5.17;;;4.13;;
16075;SDS011;8142;48.242;11.644;2023-04-23T06:26:58;5.23;;;4.67;;
16075;SDS011;8142;48.242;11.644;2023-04-23T06:29:24;7.83;;;4.27;;
16075;SDS011;8142;48.242;11.644;2023-04-23T06:31:50;6.00;;;4.53;;
16075;SDS011;8142;48.242;11.644;2023-04-23T06:34:19;6.30;;;4.70;;
16075;SDS011;8142;48.242;11.644;2023-04-23T06:36:44;6.27;;;5.13;;
16075;SDS011;8142;48.242;11.644;2023-04-23T06:39:10;5.13;;;4.43;;
16075;SDS011;8142;48.242;11.644;2023-04-23T06:41:36;5.80;;;4.60;;
16075;SDS011;8142;48.242;11.644;2023-04-23T06:44:03;6.63;;;4.50;;
16075;SDS011;8142;48.242;11.644;2023-04-23T06:46:28;6.13;;;4.90;;
16075;SDS011;8142;48.242;11.644;2023-04-23T06:48:54;6.80;;;5.00;;
16075;SDS011;8142;48.242;11.644;2023-04-23T06:51:20;7.43;;;5.37;;
16075;SDS011;8142;48.242;11.644;2023-04-23T06:53:46;5.40;;;4.73;;
16075;SDS011;8142;48.242;11.644;2023-04-23T06:56:12;5.37;;;4.73;;
16075;SDS011;8142;48.242;11.644;2023-04-23T06:58:38;8.33;;;4.70;;
16075;SDS011;8142;48.242;11.644;2023-04-23T07:01:05;6.07;;;4.70;;
16075;SDS011;8142;48.242;11.644;2023-04-23T07:03:32;5.37;;;4.73;;
16075;SDS011;8142;48.242;11.644;2023-04-23T07:05:58;6.00;;;4.73;;
16075;SDS011;8142;48.242;11.644;2023-04-23T07:08:24;6.10;;;4.80;;
16075;SDS011;8142;48.242;11.644;2023-04-23T07:10:50;5.20;;;4.67;;
16075;SDS011;8142;48.242;11.644;2023-04-23T07:13:17;8.20;;;5.43;;
16075;SDS011;8142;48.242;11.644;2023-04-23T07:15:43;7.47;;;5.73;;
16075;SDS011;8142;48.242;11.644;2023-04-23T07:18:09;6.53;;;5.40;;
16075;SDS011;8142;48.242;11.644;2023-04-23T07:20:35;7.17;;;6.00;;
16075;SDS011;8142;48.242;11.644;2023-04-23T07:23:01;6.97;;;5.63;;
16075;SDS011;8142;48.242;11.644;2023-04-23T07:25:28;9.17;;;6.07;;
16075;SDS011;8142;48.242;11.644;2023-04-23T07:27:55;7.67;;;5.77;;
16075;SDS011;8142;48.242;11.644;2023-04-23T07:30:21;9.23;;;5.73;;
16075;SDS011;8142;48.242;11.644;2023-04-23T07:32:49;7.37;;;5.30;;
16075;SDS011;8142;48.242;11.644;2023-04-23T07:35:15;7.90;;;5.60;;
16075;SDS011;8142;48.242;11.644;2023-04-23T07:37:40;7.77;;;5.43;;
16075;SDS011;8142;48.242;11.644;2023-04-23T07:40:06;9.43;;;6.07;;
16075;SDS011;8142;48.242;11.644;2023-04-23T07:42:38;7.53;;;5.87;;
16075;SDS011;8142;48.242;11.644;2023-04-23T07:45:04;8.73;;;5.53;;
16075;SDS011;8142;48.242;11.644;2023-04-23T07:47:31;7.00;;;5.23;;
16075;SDS011;8142;48.242;11.644;2023-04-23T07:49:57;7.20;;;5.43;;
16075;SDS011;8142;48.242;11.644;2023-04-23T07:52:22;7.60;;;5.60;;
16075;SDS011;8142;48.242;11.644;2023-04-23T07:54:48;6.27;;;5.33;;
16075;SDS011;8142;48.242;11.644;2023-04-23T07:57:14;7.53;;;5.40;;
16075;SDS011;8142;48.242;11.644;2023-04-23T07:59:40;6.13;;;5.33;;
16075;SDS011;8142;48.242;11.644;2023-04-23T08:02:06;6.23;;;5.33;;
16075;SDS011;8142;48.242;11.644;2023-04-23T08:04:32;6.73;;;5.40;;
16075;SDS011;8142;48.242;11.644;2023-04-23T08:06:58;7.67;;;5.77;;
16075;SDS011;8142;48.242;11.644;2023-04-23T08:09:24;9.63;;;6.20;;
16075;SDS011;8142;48.242;11.644;2023-04-23T08:11:50;7.77;;;5.73;;
16075;SDS011;8142;48.242;11.644;2023-04-23T08:14:17;7.17;;;5.33;;
16075;SDS011;8142;48.242;11.644;2023-04-23T08:16:43;6.17;;;5.20;;
16075;SDS011;8142;48.242;11.644;2023-04-23T08:19:09;7.43;;;6.27;;
16075;SDS011;8142;48.242;11.644;2023-04-23T08:21:36;7.67;;;5.90;;
16075;SDS011;8142;48.242;11.644;2023-04-23T08:24:02;6.83;;;5.53;;
16075;SDS011;8142;48.242;11.644;2023-04-23T08:26:28;6.30;;;5.20;;
16075;SDS011;8142;48.242;11.644;2023-04-23T08:28:55;7.30;;;5.57;;
16075;SDS011;8142;48.242;11.644;2023-04-23T08:31:21;7.53;;;5.77;;
16075;SDS011;8142;48.242;11.644;2023-04-23T08:33:47;8.00;;;5.80;;
16075;SDS011;8142;48.242;11.644;2023-04-23T08:36:13;7.60;;;5.77;;
16075;SDS011;8142;48.242;11.644;2023-04-23T08:38:39;6.70;;;5.77;;
16075;SDS011;8142;48.242;11.644;2023-04-23T08:41:06;7.13;;;5.40;;
16075;SDS011;8142;48.242;11.644;2023-04-23T08:46:17;6.33;;;5.50;;
16075;SDS011;8142;48.242;11.644;2023-04-23T08:48:43;6.57;;;5.40;;
16075;SDS011;8142;48.242;11.644;2023-04-23T08:51:12;6.00;;;5.17;;
16075;SDS011;8142;48.242;11.644;2023-04-23T08:53:42;6.43;;;5.60;;
16075;SDS011;8142;48.242;11.644;2023-04-23T08:56:10;7.43;;;5.00;;
16075;SDS011;8142;48.242;11.644;2023-04-23T08:58:37;7.73;;;5.60;;
16075;SDS011;8142;48.242;11.644;2023-04-23T09:01:05;6.27;;;5.03;;
16075;SDS011;8142;48.242;11.644;2023-04-23T09:03:32;5.90;;;5.30;;
16075;SDS011;8142;48.242;11.644;2023-04-23T09:05:58;6.73;;;4.80;;
16075;SDS011;8142;48.242;11.644;2023-04-23T09:08:25;5.07;;;4.57;;
16075;SDS011;8142;48.242;11.644;2023-04-23T09:10:51;6.30;;;5.00;;
16075;SDS011;8142;48.242;11.644;2023-04-23T09:13:20;7.17;;;4.03;;
16075;SDS011;8142;48.242;11.644;2023-04-23T09:15:47;4.60;;;3.80;;
16075;SDS011;8142;48.242;11.644;2023-04-23T09:18:13;4.40;;;4.00;;
16075;SDS011;8142;48.242;11.644;2023-04-23T09:20:39;4.70;;;4.20;;
16075;SDS011;8142;48.242;11.644;2023-04-23T09:23:06;4.80;;;3.83;;
16075;SDS011;8142;48.242;11.644;2023-04-23T09:25:32;5.40;;;4.13;;
16075;SDS011;8142;48.242;11.644;2023-04-23T09:27:58;5.20;;;4.10;;
16075;SDS011;8142;48.242;11.644;2023-04-23T09:30:27;4.50;;;4.10;;
16075;SDS011;8142;48.242;11.644;2023-04-23T09:32:53;4.93;;;3.60;;
16075;SDS011;8142;48.242;11.644;2023-04-23T09:35:19;4.10;;;3.67;;
16075;SDS011;8142;48.242;11.644;2023-04-23T09:37:46;5.13;;;3.40;;
16075;SDS011;8142;48.242;11.644;2023-04-23T09:40:14;3.87;;;3.30;;
16075;SDS011;8142;48.242;11.644;2023-04-23T09:42:45;3.93;;;3.50;;
16075;SDS011;8142;48.242;11.644;2023-04-23T09:45:12;3.80;;;3.27;;
16075;SDS011;8142;48.242;11.644;2023-04-23T09:47:39;3.87;;;3.50;;
16075;SDS011;8142;48.242;11.644;2023-04-23T09:50:06;3.97;;;3.30;;
16075;SDS011;8142;48.242;11.644;2023-04-23T09:52:38;4.23;;;3.20;;
16075;SDS011;8142;48.242;11.644;2023-04-23T09:55:04;5.57;;;3.90;;
16075;SDS011;8142;48.242;11.644;2023-04-23T09:57:34;4.70;;;3.83;;
16075;SDS011;8142;48.242;11.644;2023-04-23T10:00:18;4.43;;;3.60;;
16075;SDS011;8142;48.242;11.644;2023-04-23T10:02:46;4.60;;;3.47;;
16075;SDS011;8142;48.242;11.644;2023-04-23T10:05:13;3.63;;;3.00;;
16075;SDS011;8142;48.242;11.644;2023-04-23T10:07:44;4.77;;;3.40;;
16075;SDS011;8142;48.242;11.644;2023-04-23T10:10:13;4.90;;;3.23;;
16075;SDS011;8142;48.242;11.644;2023-04-23T10:12:43;5.00;;;3.00;;
16075;SDS011;8142;48.242;11.644;2023-04-23T10:15:10;3.97;;;3.00;;
16075;SDS011;8142;48.242;11.644;2023-04-23T10:17:38;4.00;;;3.57;;
16075;SDS011;8142;48.242;11.644;2023-04-23T10:20:05;3.80;;;3.43;;
16075;SDS011;8142;48.242;11.644;2023-04-23T10:22:33;6.07;;;3.70;;
16075;SDS011;8142;48.242;11.644;2023-04-23T10:25:07;4.03;;;3.63;;
16075;SDS011;8142;48.242;11.644;2023-04-23T10:27:36;4.27;;;3.30;;
16075;SDS011;8142;48.242;11.644;2023-04-23T10:30:07;4.17;;;3.30;;
16075;SDS011;8142;48.242;11.644;2023-04-23T10:32:34;4.63;;;3.50;;
16075;SDS011;8142;48.242;11.644;2023-04-23T10:35:03;4.13;;;3.60;;
16075;SDS011;8142;48.242;11.644;2023-04-23T10:37:30;4.57;;;4.00;;
16075;SDS011;8142;48.242;11.644;2023-04-23T10:40:00;4.30;;;3.90;;
16075;SDS011;8142;48.242;11.644;2023-04-23T10:42:33;4.53;;;3.97;;
16075;SDS011;8142;48.242;11.644;2023-04-23T10:44:59;4.20;;;3.80;;
16075;SDS011;8142;48.242;11.644;2023-04-23T10:47:26;4.13;;;3.73;;
16075;SDS011;8142;48.242;11.644;2023-04-23T10:49:52;5.33;;;3.87;;
16075;SDS011;8142;48.242;11.644;2023-04-23T10:52:18;5.27;;;3.70;;
16075;SDS011;8142;48.242;11.644;2023-04-23T10:54:48;5.20;;;4.27;;
16075;SDS011;8142;48.242;11.644;2023-04-23T10:57:20;5.60;;;4.17;;
16075;SDS011;8142;48.242;11.644;2023-04-23T10:59:53;5.67;;;4.00;;
16075;SDS011;8142;48.242;11.644;2023-04-23T11:02:22;4.67;;;4.00;;
16075;SDS011;8142;48.242;11.644;2023-04-23T11:04:55;5.30;;;3.70;;
16075;SDS011;8142;48.242;11.644;2023-04-23T11:07:25;5.03;;;4.07;;
16075;SDS011;8142;48.242;11.644;2023-04-23T11:09:56;4.53;;;4.13;;
16075;SDS011;8142;48.242;11.644;2023-04-23T11:14:54;5.63;;;3.80;;
16075;SDS011;8142;48.242;11.644;2023-04-23T11:17:21;3.90;;;3.40;;
16075;SDS011;8142;48.242;11.644;2023-04-23T11:22:42;4.30;;;3.43;;
16075;SDS011;8142;48.242;11.644;2023-04-23T11:25:12;3.80;;;3.40;;
16075;SDS011;8142;48.242;11.644;2023-04-23T11:27:46;5.00;;;3.43;;
16075;SDS011;8142;48.242;11.644;2023-04-23T11:30:14;4.03;;;3.63;;
16075;SDS011;8142;48.242;11.644;2023-04-23T11:32:45;3.97;;;3.50;;
16075;SDS011;8142;48.242;11.644;2023-04-23T11:35:13;4.23;;;3.80;;
16075;SDS011;8142;48.242;11.644;2023-04-23T11:37:40;4.10;;;3.70;;
16075;SDS011;8142;48.242;11.644;2023-04-23T11:40:07;5.03;;;3.80;;
16075;SDS011;8142;48.242;11.644;2023-04-23T11:42:41;4.13;;;3.60;;
16075;SDS011;8142;48.242;11.644;2023-04-23T11:45:23;4.07;;;3.67;;
16075;SDS011;8142;48.242;11.644;2023-04-23T11:47:52;3.77;;;3.33;;
16075;SDS011;8142;48.242;11.644;2023-04-23T11:50:25;3.63;;;3.33;;
16075;SDS011;8142;48.242;11.644;2023-04-23T11:52:52;5.60;;;5.00;;
16075;SDS011;8142;48.242;11.644;2023-04-23T11:55:19;4.17;;;3.77;;
16075;SDS011;8142;48.242;11.644;2023-04-23T11:57:48;4.03;;;3.10;;
16075;SDS011;8142;48.242;11.644;2023-04-23T12:02:52;4.97;;;3.77;;
16075;SDS011;8142;48.242;11.644;2023-04-23T12:05:20;7.23;;;5.40;;
16075;SDS011;8142;48.242;11.644;2023-04-23T12:10:42;4.03;;;3.50;;
16075;SDS011;8142;48.242;11.644;2023-04-23T12:13:22;4.73;;;4.27;;
16075;SDS011;8142;48.242;11.644;2023-04-23T12:15:51;7.03;;;5.27;;
16075;SDS011;8142;48.242;11.644;2023-04-23T12:18:26;5.73;;;4.30;;
16075;SDS011;8142;48.242;11.644;2023-04-23T12:21:03;4.73;;;3.90;;
16075;SDS011;8142;48.242;11.644;2023-04-23T12:23:40;5.10;;;3.80;;
16075;SDS011;8142;48.242;11.644;2023-04-23T12:26:09;4.57;;;3.60;;
16075;SDS011;8142;48.242;11.644;2023-04-23T12:29:12;4.90;;;3.10;;
16075;SDS011;8142;48.242;11.644;2023-04-23T12:31:31;2.80;;;2.50;;
16075;SDS011;8142;48.242;11.644;2023-04-23T12:34:05;2.70;;;2.43;;
16075;SDS011;8142;48.242;11.644;2023-04-23T12:36:32;3.60;;;2.80;;
16075;SDS011;8142;48.242;11.644;2023-04-23T12:41:52;3.83;;;3.27;;
16075;SDS011;8142;48.242;11.644;2023-04-23T12:44:22;4.10;;;3.60;;
16075;SDS011;8142;48.242;11.644;2023-04-23T12:46:48;3.83;;;3.43;;
16075;SDS011;8142;48.242;11.644;2023-04-23T12:49:18;4.80;;;3.47;;
16075;SDS011;8142;48.242;11.644;2023-04-23T12:51:44;4.33;;;3.20;;
16075;SDS011;8142;48.242;11.644;2023-04-23T12:54:10;4.40;;;3.63;;
16075;SDS011;8142;48.242;11.644;2023-04-23T12:56:36;3.90;;;3.20;;
16075;SDS011;8142;48.242;11.644;2023-04-23T12:59:02;3.43;;;3.00;;
16075;SDS011;8142;48.242;11.644;2023-04-23T13:01:29;4.70;;;3.53;;
16075;SDS011;8142;48.242;11.644;2023-04-23T13:03:56;4.20;;;3.50;;
16075;SDS011;8142;48.242;11.644;2023-04-23T13:06:22;3.43;;;3.13;;
16075;SDS011;8142;48.242;11.644;2023-04-23T13:08:50;3.67;;;3.37;;
16075;SDS011;8142;48.242;11.644;2023-04-23T13:11:16;4.07;;;3.57;;
16075;SDS011;8142;48.242;11.644;2023-04-23T13:13:42;4.03;;;3.50;;
16075;SDS011;8142;48.242;11.644;2023-04-23T13:16:08;4.67;;;3.40;;
16075;SDS011;8142;48.242;11.644;2023-04-23T13:18:34;5.23;;;3.60;;
16075;SDS011;8142;48.242;11.644;2023-04-23T13:21:00;4.33;;;3.40;;
16075;SDS011;8142;48.242;11.644;2023-04-23T13:23:26;4.33;;;3.63;;
16075;SDS011;8142;48.242;11.644;2023-04-23T13:25:51;4.37;;;3.97;;
16075;SDS011;8142;48.242;11.644;2023-04-23T13:28:17;5.60;;;4.40;;
16075;SDS011;8142;48.242;11.644;2023-04-23T13:30:43;5.63;;;4.33;;
16075;SDS011;8142;48.242;11.644;2023-04-23T13:33:09;4.57;;;4.00;;
16075;SDS011;8142;48.242;11.644;2023-04-23T13:35:35;3.87;;;3.50;;
16075;SDS011;8142;48.242;11.644;2023-04-23T13:38:02;5.70;;;4.00;;
16075;SDS011;8142;48.242;11.644;2023-04-23T13:40:28;4.53;;;3.90;;
16075;SDS011;8142;48.242;11.644;2023-04-23T13:42:54;4.00;;;3.53;;
16075;SDS011;8142;48.242;11.644;2023-04-23T13:45:20;4.93;;;3.50;;
16075;SDS011;8142;48.242;11.644;2023-04-23T13:47:46;3.83;;;3.30;;
16075;SDS011;8142;48.242;11.644;2023-04-23T13:50:12;4.90;;;3.20;;
16075;SDS011;8142;48.242;11.644;2023-04-23T13:52:37;3.77;;;2.97;;
16075;SDS011;8142;48.242;11.644;2023-04-23T13:55:04;3.50;;;2.80;;
16075;SDS011;8142;48.242;11.644;2023-04-23T13:57:32;3.77;;;3.47;;
16075;SDS011;8142;48.242;11.644;2023-04-23T13:59:58;4.63;;;3.47;;
16075;SDS011;8142;48.242;11.644;2023-04-23T14:02:25;4.60;;;3.80;;
16075;SDS011;8142;48.242;11.644;2023-04-23T14:04:51;3.70;;;3.40;;
16075;SDS011;8142;48.242;11.644;2023-04-23T14:07:17;3.40;;;3.10;;
16075;SDS011;8142;48.242;11.644;2023-04-23T14:09:42;3.57;;;3.20;;
16075;SDS011;8142;48.242;11.644;2023-04-23T14:12:10;4.83;;;3.40;;
16075;SDS011;8142;48.242;11.644;2023-04-23T14:14:36;4.10;;;3.70;;
16075;SDS011;8142;48.242;11.644;2023-04-23T14:17:02;3.90;;;3.50;;
16075;SDS011;8142;48.242;11.644;2023-04-23T14:19:28;4.03;;;3.27;;
16075;SDS011;8142;48.242;11.644;2023-04-23T14:21:58;3.60;;;3.30;;
16075;SDS011;8142;48.242;11.644;2023-04-23T14:24:28;4.07;;;3.67;;
16075;SDS011;8142;48.242;11.644;2023-04-23T14:26:58;5.03;;;3.70;;
16075;SDS011;8142;48.242;11.644;2023-04-23T14:31:59;3.70;;;3.33;;
16075;SDS011;8142;48.242;11.644;2023-04-23T14:34:25;3.63;;;3.27;;
16075;SDS011;8142;48.242;11.644;2023-04-23T14:36:51;6.27;;;4.33;;
16075;SDS011;8142;48.242;11.644;2023-04-23T14:39:17;3.97;;;3.53;;
16075;SDS011;8142;48.242;11.644;2023-04-23T14:41:44;4.80;;;3.90;;
16075;SDS011;8142;48.242;11.644;2023-04-23T14:44:09;4.17;;;3.53;;
16075;SDS011;8142;48.242;11.644;2023-04-23T14:46:35;3.57;;;3.23;;
16075;SDS011;8142;48.242;11.644;2023-04-23T14:49:01;3.77;;;3.40;;
16075;SDS011;8142;48.242;11.644;2023-04-23T14:51:28;4.60;;;3.60;;
16075;SDS011;8142;48.242;11.644;2023-04-23T14:53:54;3.83;;;3.40;;
16075;SDS011;8142;48.242;11.644;2023-04-23T14:56:19;3.93;;;3.50;;
16075;SDS011;8142;48.242;11.644;2023-04-23T14:58:45;4.23;;;3.40;;
16075;SDS011;8142;48.242;11.644;2023-04-23T15:01:11;7.00;;;3.40;;
16075;SDS011;8142;48.242;11.644;2023-04-23T15:03:37;4.33;;;3.57;;
16075;SDS011;8142;48.242;11.644;2023-04-23T15:06:04;6.43;;;3.40;;